createdAt,value
2019-05-22T00:00:49.241Z,3.70
2019-05-22T00:03:27.404Z,3.50
2019-05-22T00:05:58.400Z,3.85
2019-05-22T00:08:30.157Z,3.70
2019-05-22T00:11:02.282Z,3.47
2019-05-22T00:13:35.665Z,3.60
2019-05-22T00:16:08.548Z,3.53
2019-05-22T00:18:39.922Z,3.60
2019-05-22T00:21:10.166Z,4.12
2019-05-22T00:23:42.534Z,3.45
2019-05-22T00:26:15.267Z,3.95
2019-05-22T00:28:47.848Z,3.90
2019-05-22T00:31:18.152Z,4.08
2019-05-22T00:33:49.234Z,4.17
2019-05-22T00:36:20.743Z,4.00
2019-05-22T00:38:51.170Z,3.95
2019-05-22T00:41:24.050Z,4.20
2019-05-22T00:43:56.867Z,3.72
2019-05-22T00:46:28.417Z,4.15
2019-05-22T00:48:59.910Z,3.92
2019-05-22T00:51:35.786Z,3.92
2019-05-22T00:54:25.887Z,3.98
2019-05-22T00:56:57.751Z,3.85
2019-05-22T00:59:36.372Z,4.25
2019-05-22T01:02:08.235Z,3.87
2019-05-22T01:04:42.955Z,4.20
2019-05-22T01:07:17.760Z,4.42
2019-05-22T01:09:48.931Z,4.33
2019-05-22T01:12:29.855Z,4.25
2019-05-22T01:15:05.536Z,4.30
2019-05-22T01:17:38.421Z,4.50
2019-05-22T01:20:12.825Z,4.58
2019-05-22T01:25:16.440Z,4.20
2019-05-22T01:27:48.800Z,4.60
2019-05-22T01:30:37.029Z,4.80
2019-05-22T01:33:14.132Z,5.42
2019-05-22T01:35:50.298Z,4.35
2019-05-22T01:38:23.561Z,4.78
2019-05-22T01:40:56.275Z,4.85
2019-05-22T01:43:28.136Z,4.97
2019-05-22T01:46:03.497Z,4.53
2019-05-22T01:48:40.307Z,4.78
2019-05-22T01:51:11.507Z,4.80
2019-05-22T01:53:44.338Z,5.12
2019-05-22T01:56:17.217Z,5.12
2019-05-22T01:58:50.072Z,5.30
2019-05-22T02:01:22.202Z,5.25
2019-05-22T02:03:55.413Z,4.78
2019-05-22T02:06:26.897Z,5.05
2019-05-22T02:09:31.357Z,4.55
2019-05-22T02:12:09.005Z,4.87
2019-05-22T02:14:42.625Z,4.72
2019-05-22T02:17:13.331Z,5.22
2019-05-22T02:19:46.291Z,5.10
2019-05-22T02:22:17.413Z,5.17
2019-05-22T02:24:51.921Z,4.80
2019-05-22T02:27:24.282Z,4.78
2019-05-22T02:29:55.611Z,4.85
2019-05-22T02:32:27.764Z,4.67
2019-05-22T02:35:00.171Z,4.80
2019-05-22T02:37:32.877Z,4.80
2019-05-22T02:40:04.817Z,4.45
2019-05-22T02:42:36.950Z,4.92
2019-05-22T02:45:10.779Z,4.90
2019-05-22T02:47:43.019Z,4.15
2019-05-22T02:50:16.969Z,4.40
2019-05-22T02:52:47.921Z,4.55
2019-05-22T02:55:19.149Z,3.80
2019-05-22T02:57:50.043Z,3.80
2019-05-22T03:00:22.641Z,3.40
2019-05-22T03:02:57.538Z,3.80
2019-05-22T03:05:28.327Z,3.65
2019-05-22T03:08:00.318Z,3.55
2019-05-22T03:10:32.818Z,3.62
2019-05-22T03:13:04.456Z,3.02
2019-05-22T03:15:35.242Z,3.45
2019-05-22T03:18:08.943Z,3.30
2019-05-22T03:20:40.321Z,4.40
2019-05-22T03:23:36.519Z,3.50
2019-05-22T03:26:10.811Z,3.42
2019-05-22T03:28:42.305Z,2.98
2019-05-22T03:31:13.072Z,2.92
2019-05-22T03:33:44.457Z,3.00
2019-05-22T03:36:17.238Z,2.67
2019-05-22T03:38:48.906Z,3.12
2019-05-22T03:41:19.609Z,2.65
2019-05-22T03:43:51.135Z,2.98
2019-05-22T03:46:26.126Z,2.98
2019-05-22T03:48:57.594Z,3.00
2019-05-22T03:51:28.192Z,2.67
2019-05-22T03:53:58.473Z,3.05
2019-05-22T03:56:30.034Z,2.75
2019-05-22T03:59:02.648Z,2.77
2019-05-22T04:01:34.553Z,3.08
2019-05-22T04:04:07.555Z,2.83
2019-05-22T04:06:40.267Z,2.83
2019-05-22T04:09:19.847Z,2.80
2019-05-22T04:11:50.597Z,2.50
2019-05-22T04:14:22.109Z,2.50
2019-05-22T04:16:52.838Z,3.33
2019-05-22T04:19:23.933Z,2.40
2019-05-22T04:21:55.255Z,2.47
2019-05-22T04:24:26.250Z,2.52
2019-05-22T04:26:57.402Z,2.50
2019-05-22T04:29:28.432Z,2.37
2019-05-22T04:32:07.048Z,2.50
2019-05-22T04:34:37.606Z,2.45
2019-05-22T04:37:10.647Z,2.50
2019-05-22T04:39:41.629Z,2.42
2019-05-22T04:42:12.714Z,2.45
2019-05-22T04:45:03.401Z,2.70
2019-05-22T04:47:35.551Z,3.02
2019-05-22T04:50:10.735Z,2.52
2019-05-22T04:52:42.274Z,2.40
2019-05-22T04:55:13.599Z,3.83
2019-05-22T04:57:44.588Z,3.05
2019-05-22T05:00:16.614Z,3.33
2019-05-22T05:02:47.635Z,2.77
2019-05-22T05:05:19.396Z,2.40
2019-05-22T05:07:52.314Z,3.05
2019-05-22T05:10:24.424Z,2.12
2019-05-22T05:12:57.760Z,2.98
2019-05-22T05:15:28.010Z,3.00
2019-05-22T05:17:58.412Z,2.70
2019-05-22T05:20:29.068Z,2.20
2019-05-22T05:22:59.974Z,2.37
2019-05-22T05:25:31.247Z,2.55
2019-05-22T05:28:02.955Z,2.77
2019-05-22T05:30:34.297Z,2.52
2019-05-22T05:33:05.618Z,2.17
2019-05-22T05:35:37.411Z,2.85
2019-05-22T05:38:08.380Z,3.10
2019-05-22T05:40:43.074Z,2.98
2019-05-22T05:43:16.511Z,3.15
2019-05-22T05:45:50.792Z,2.83
2019-05-22T05:48:22.930Z,3.75
2019-05-22T05:51:08.414Z,3.77
2019-05-22T05:54:03.151Z,3.00
2019-05-22T05:56:37.168Z,2.60
2019-05-22T05:59:09.446Z,23.32
2019-05-22T06:01:42.130Z,3.02
2019-05-22T06:04:13.400Z,2.62
2019-05-22T06:06:51.980Z,2.52
2019-05-22T06:09:24.913Z,2.77
2019-05-22T06:11:59.624Z,3.12
2019-05-22T06:14:32.283Z,3.17
2019-05-22T06:17:36.072Z,2.72
2019-05-22T06:20:12.414Z,2.72
2019-05-22T06:22:45.177Z,3.02
2019-05-22T06:25:17.570Z,2.98
2019-05-22T06:27:52.684Z,3.17
2019-05-22T06:30:41.187Z,3.25
2019-05-22T06:33:26.155Z,3.67
2019-05-22T06:35:57.115Z,2.60
2019-05-22T06:38:50.088Z,3.00
2019-05-22T06:41:23.174Z,2.70
2019-05-22T06:44:27.403Z,3.17
2019-05-22T06:46:58.745Z,3.10
2019-05-22T06:49:35.048Z,3.00
2019-05-22T06:52:07.191Z,2.90
2019-05-22T06:54:38.813Z,3.02
2019-05-22T06:57:12.427Z,2.65
2019-05-22T06:59:43.503Z,2.62
2019-05-22T07:02:17.263Z,2.85
2019-05-22T07:04:48.838Z,3.30
2019-05-22T07:07:21.568Z,2.70
2019-05-22T07:09:53.003Z,2.92
2019-05-22T07:12:24.974Z,2.90
2019-05-22T07:15:07.621Z,3.25
2019-05-22T07:17:40.611Z,2.62
2019-05-22T07:20:13.156Z,2.77
2019-05-22T07:22:45.534Z,2.80
2019-05-22T07:25:16.323Z,2.30
2019-05-22T07:27:46.787Z,2.72
2019-05-22T07:30:18.040Z,1.67
2019-05-22T07:32:48.525Z,1.75
2019-05-22T07:35:19.364Z,1.65
2019-05-22T07:37:50.953Z,1.90
2019-05-22T07:40:22.806Z,2.87
2019-05-22T07:42:54.447Z,2.92
2019-05-22T07:45:29.295Z,3.05
2019-05-22T07:48:01.693Z,2.47
2019-05-22T07:50:37.520Z,2.20
2019-05-22T07:53:09.774Z,2.22
2019-05-22T07:55:41.537Z,2.08
2019-05-22T07:58:17.166Z,2.47
2019-05-22T08:00:55.263Z,2.08
2019-05-22T08:03:26.316Z,2.10
2019-05-22T08:05:58.771Z,1.90
2019-05-22T08:08:33.233Z,2.42
2019-05-22T08:11:05.822Z,1.47
2019-05-22T08:13:37.962Z,1.40
2019-05-22T08:16:09.893Z,1.77
2019-05-22T08:18:40.784Z,1.60
2019-05-22T08:21:12.265Z,1.42
2019-05-22T08:23:42.993Z,2.10
2019-05-22T08:26:15.880Z,1.30
2019-05-22T08:28:46.950Z,1.87
2019-05-22T08:31:21.305Z,1.60
2019-05-22T08:33:53.196Z,1.80
2019-05-22T08:36:24.426Z,1.82
2019-05-22T08:38:55.094Z,2.37
2019-05-22T08:41:29.042Z,1.67
2019-05-22T08:44:15.219Z,2.30
2019-05-22T08:46:34.085Z,2.05
2019-05-22T08:49:07.326Z,1.85
2019-05-22T08:51:38.901Z,2.25
2019-05-22T08:54:09.931Z,1.72
2019-05-22T08:56:44.999Z,1.70
2019-05-22T08:59:19.902Z,1.90
2019-05-22T09:01:49.536Z,2.08
2019-05-22T09:04:21.240Z,1.90
2019-05-22T09:06:52.231Z,1.90
2019-05-22T09:09:23.554Z,2.30
2019-05-22T09:11:54.175Z,1.90
2019-05-22T09:14:24.816Z,1.70
2019-05-22T09:16:57.693Z,1.70
2019-05-22T09:19:29.407Z,1.75
2019-05-22T09:22:00.874Z,1.70
2019-05-22T09:24:33.981Z,1.70
2019-05-22T09:27:05.692Z,1.80
2019-05-22T09:29:36.206Z,2.20
2019-05-22T09:32:07.757Z,2.17
2019-05-22T09:34:39.435Z,1.90
2019-05-22T09:37:10.018Z,2.08
2019-05-22T09:39:41.387Z,2.47
2019-05-22T09:42:13.328Z,1.85
2019-05-22T09:44:44.457Z,1.50
2019-05-22T09:47:16.009Z,1.90
2019-05-22T09:49:49.564Z,2.42
2019-05-22T09:52:20.611Z,1.87
2019-05-22T09:54:51.633Z,1.80
2019-05-22T09:57:22.705Z,2.10
2019-05-22T09:59:53.081Z,1.90
2019-05-22T10:02:26.151Z,1.70
2019-05-22T10:04:57.096Z,2.40
2019-05-22T10:07:27.450Z,1.55
2019-05-22T10:09:57.692Z,1.62
2019-05-22T10:12:29.880Z,1.70
2019-05-22T10:15:01.549Z,1.62
2019-05-22T10:17:34.533Z,2.35
2019-05-22T10:20:08.975Z,2.00
2019-05-22T10:22:40.792Z,1.80
2019-05-22T10:25:16.491Z,1.75
2019-05-22T10:27:48.834Z,1.70
2019-05-22T10:30:24.934Z,1.92
2019-05-22T10:32:56.397Z,1.90
2019-05-22T10:35:29.121Z,1.77
2019-05-22T10:38:00.066Z,2.33
2019-05-22T10:40:30.774Z,2.40
2019-05-22T10:43:01.079Z,2.55
2019-05-22T10:45:32.246Z,2.42
2019-05-22T10:48:03.633Z,2.60
2019-05-22T10:50:34.949Z,2.10
2019-05-22T10:53:06.407Z,1.90
2019-05-22T10:55:37.685Z,2.42
2019-05-22T10:58:08.989Z,2.05
2019-05-22T11:00:39.979Z,2.52
2019-05-22T11:03:12.008Z,2.40
2019-05-22T11:05:44.266Z,1.90
2019-05-22T11:08:14.740Z,2.15
2019-05-22T11:10:46.315Z,1.67
2019-05-22T11:13:17.609Z,2.30
2019-05-22T11:15:48.671Z,1.70
2019-05-22T11:18:19.688Z,1.70
2019-05-22T11:20:51.448Z,1.50
2019-05-22T11:23:21.949Z,1.42
2019-05-22T11:25:52.553Z,1.20
2019-05-22T11:28:24.409Z,1.55
2019-05-22T11:30:56.469Z,1.40
2019-05-22T11:33:27.335Z,1.30
2019-05-22T11:35:58.865Z,1.50
2019-05-22T11:38:30.436Z,1.50
2019-05-22T11:41:01.407Z,1.77
2019-05-22T11:43:33.407Z,1.60
2019-05-22T11:46:05.009Z,1.70
2019-05-22T11:48:35.768Z,4.80
2019-05-22T11:51:06.934Z,2.55
2019-05-22T11:53:37.814Z,1.92
2019-05-22T11:56:08.253Z,1.82
2019-05-22T11:58:39.087Z,1.75
2019-05-22T12:01:09.668Z,1.57
2019-05-22T12:03:42.316Z,1.85
2019-05-22T12:06:14.435Z,1.90
2019-05-22T12:08:47.460Z,2.90
2019-05-22T12:11:20.371Z,2.00
2019-05-22T12:13:51.280Z,1.40
2019-05-22T12:16:24.647Z,1.47
2019-05-22T12:18:58.430Z,1.20
2019-05-22T12:21:26.945Z,1.30
2019-05-22T12:23:57.554Z,2.12
2019-05-22T12:26:28.691Z,1.40
2019-05-22T12:28:59.232Z,1.65
2019-05-22T12:31:30.108Z,1.12
2019-05-22T12:34:01.858Z,1.30
2019-05-22T12:36:33.963Z,1.10
2019-05-22T12:39:09.427Z,1.50
2019-05-22T12:41:40.842Z,1.67
2019-05-22T12:44:12.078Z,0.80
2019-05-22T12:46:43.703Z,0.95
2019-05-22T13:02:42.881Z,1.80
2019-05-22T13:05:14.610Z,2.30
2019-05-22T13:07:56.375Z,2.58
2019-05-22T13:10:29.055Z,1.82
2019-05-22T13:13:01.509Z,1.85
2019-05-22T13:15:33.106Z,1.60
2019-05-22T13:18:03.855Z,1.60
2019-05-22T13:20:43.129Z,1.70
2019-05-22T13:23:13.920Z,2.22
2019-05-22T13:25:45.977Z,1.80
2019-05-22T13:28:18.433Z,1.80
2019-05-22T13:30:52.820Z,1.87
2019-05-22T13:33:26.972Z,1.50
2019-05-22T13:35:57.839Z,1.57
2019-05-22T13:38:28.422Z,1.85
2019-05-22T13:41:00.303Z,1.35
2019-05-22T13:43:31.308Z,1.67
2019-05-22T13:46:02.747Z,1.60
2019-05-22T13:48:34.178Z,1.65
2019-05-22T13:51:07.458Z,1.87
2019-05-22T13:53:38.240Z,1.57
2019-05-22T13:56:11.265Z,1.82
2019-05-22T13:58:43.587Z,1.80
2019-05-22T14:01:14.532Z,2.45
2019-05-22T14:03:45.711Z,2.08
2019-05-22T14:06:16.104Z,1.75
2019-05-22T14:08:47.143Z,1.60
2019-05-22T14:11:19.597Z,1.55
2019-05-22T14:13:52.505Z,1.52
2019-05-22T14:16:23.198Z,2.08
2019-05-22T14:18:53.909Z,1.42
2019-05-22T14:21:24.692Z,1.50
2019-05-22T14:23:55.405Z,1.65
2019-05-22T14:26:29.585Z,1.80
2019-05-22T14:28:58.498Z,2.70
2019-05-22T14:31:28.785Z,1.80
2019-05-22T14:33:59.814Z,1.52
2019-05-22T14:36:31.253Z,1.45
2019-05-22T14:39:03.793Z,1.55
2019-05-22T14:41:34.319Z,1.25
2019-05-22T14:44:05.696Z,1.50
2019-05-22T14:46:36.010Z,1.10
2019-05-22T14:49:07.260Z,1.15
2019-05-22T14:51:38.647Z,1.40
2019-05-22T14:54:12.297Z,1.70
2019-05-22T14:56:45.901Z,1.60
2019-05-22T14:59:18.003Z,1.67
2019-05-22T15:01:52.038Z,1.90
2019-05-22T15:04:26.114Z,1.70
2019-05-22T15:06:57.376Z,1.87
2019-05-22T15:09:28.468Z,1.98
2019-05-22T15:12:02.605Z,2.50
2019-05-22T15:14:35.358Z,1.82
2019-05-22T15:17:07.909Z,2.20
2019-05-22T15:19:38.851Z,2.12
2019-05-22T15:22:09.661Z,2.10
2019-05-22T15:24:39.985Z,1.70
2019-05-22T15:27:12.526Z,1.50
2019-05-22T15:29:43.560Z,1.50
2019-05-22T15:32:16.387Z,1.70
2019-05-22T15:34:48.791Z,1.65
2019-05-22T15:37:26.545Z,1.22
2019-05-22T15:40:00.721Z,1.60
2019-05-22T15:45:07.347Z,2.10
2019-05-22T15:47:54.793Z,1.70
2019-05-22T15:50:17.608Z,1.57
2019-05-22T15:52:52.195Z,1.60
2019-05-22T15:55:25.495Z,1.62
2019-05-22T15:57:58.613Z,2.30
2019-05-22T16:00:35.535Z,1.80
2019-05-22T16:03:17.101Z,1.65
2019-05-22T16:05:49.444Z,1.30
2019-05-22T16:08:26.114Z,1.20
2019-05-22T16:11:00.792Z,0.95
2019-05-22T16:13:34.049Z,1.20
2019-05-22T16:16:06.489Z,1.20
2019-05-22T16:18:39.556Z,1.60
2019-05-22T16:21:12.383Z,1.10
2019-05-22T16:26:15.548Z,1.70
2019-05-22T16:28:47.987Z,1.10
2019-05-22T16:31:21.769Z,1.72
2019-05-22T16:33:53.666Z,1.52
2019-05-22T16:36:25.832Z,1.50
2019-05-22T16:38:58.081Z,1.20
2019-05-22T16:41:30.936Z,1.52
2019-05-22T16:44:01.316Z,1.77
2019-05-22T16:46:33.728Z,1.67
2019-05-22T16:49:05.483Z,2.00
2019-05-22T16:51:36.641Z,2.40
2019-05-22T16:54:09.634Z,1.70
2019-05-22T16:56:41.907Z,1.72
2019-05-22T16:59:14.742Z,1.85
2019-05-22T17:01:58.712Z,1.60
2019-05-22T17:10:25.739Z,1.50
2019-05-22T17:15:29.753Z,1.90
2019-05-22T17:18:00.260Z,1.95
2019-05-22T17:20:32.290Z,2.75
2019-05-22T17:23:02.958Z,1.87
2019-05-22T17:25:34.115Z,1.87
2019-05-22T17:28:06.603Z,1.90
2019-05-22T17:30:38.766Z,2.27
2019-05-22T17:33:11.250Z,1.40
2019-05-22T17:35:42.372Z,1.62
2019-05-22T17:38:15.791Z,1.77
2019-05-22T17:40:46.729Z,1.52
2019-05-22T17:43:18.554Z,1.52
2019-05-22T17:45:52.480Z,1.92
2019-05-22T17:48:24.371Z,2.12
2019-05-22T17:50:54.812Z,2.25
2019-05-22T17:53:25.749Z,2.10
2019-05-22T17:55:57.383Z,2.10
2019-05-22T17:58:30.173Z,2.17
2019-05-22T18:01:01.193Z,2.30
2019-05-22T18:03:32.004Z,2.60
2019-05-22T18:06:02.877Z,2.75
2019-05-22T18:08:33.462Z,2.60
2019-05-22T18:11:07.318Z,2.50
2019-05-22T18:13:49.442Z,2.33
2019-05-22T18:16:22.658Z,2.50
2019-05-22T18:18:52.970Z,3.22
2019-05-22T18:21:23.612Z,3.72
2019-05-22T18:23:54.223Z,3.58
2019-05-22T18:26:24.446Z,3.90
2019-05-22T18:28:55.295Z,3.42
2019-05-22T18:31:25.557Z,3.77
2019-05-22T18:33:56.049Z,4.40
2019-05-22T18:36:26.350Z,4.33
2019-05-22T18:38:56.685Z,4.92
2019-05-22T18:41:31.396Z,4.53
2019-05-22T18:44:03.846Z,5.22
2019-05-22T18:46:34.303Z,5.10
2019-05-22T18:49:04.924Z,4.75
2019-05-22T18:51:35.279Z,5.72
2019-05-22T18:54:05.947Z,5.80
2019-05-22T18:56:37.358Z,5.75
2019-05-22T18:59:10.141Z,5.50
2019-05-22T19:01:41.286Z,6.00
2019-05-22T19:04:12.003Z,6.20
2019-05-22T19:06:43.442Z,5.97
2019-05-22T19:09:16.125Z,6.53
2019-05-22T19:11:46.888Z,6.20
2019-05-22T19:14:19.025Z,6.08
2019-05-22T19:16:49.299Z,6.22
2019-05-22T19:19:20.057Z,7.22
2019-05-22T19:21:51.420Z,6.85
2019-05-22T19:24:23.388Z,7.90
2019-05-22T19:26:54.312Z,8.75
2019-05-22T19:29:24.694Z,8.95
2019-05-22T19:31:55.148Z,8.48
2019-05-22T19:34:25.725Z,7.40
2019-05-22T19:36:55.949Z,9.48
2019-05-22T19:39:26.510Z,7.40
2019-05-22T19:42:02.953Z,12.03
2019-05-22T19:44:30.008Z,9.75
2019-05-22T19:47:01.529Z,7.15
2019-05-22T19:49:32.658Z,7.03
2019-05-22T19:52:04.311Z,10.95
2019-05-22T19:54:36.803Z,8.80
2019-05-22T19:57:08.920Z,11.05
2019-05-22T19:59:39.805Z,8.10
2019-05-22T20:02:12.377Z,8.18
2019-05-22T20:04:43.623Z,8.35
2019-05-22T20:07:14.385Z,8.20
2019-05-22T20:09:44.659Z,9.33
2019-05-22T20:12:15.673Z,8.50
2019-05-22T20:14:47.288Z,7.87
2019-05-22T20:17:17.941Z,8.20
2019-05-22T20:19:49.142Z,8.10
2019-05-22T20:22:19.830Z,9.43
2019-05-22T20:24:50.432Z,9.38
2019-05-22T20:27:21.762Z,8.63
2019-05-22T20:29:53.090Z,11.83
2019-05-22T20:32:25.290Z,10.58
2019-05-22T20:34:55.705Z,10.25
2019-05-22T20:37:26.860Z,9.90
2019-05-22T20:39:59.568Z,10.25
2019-05-22T20:42:32.191Z,11.35
2019-05-22T20:45:03.053Z,11.03
2019-05-22T20:47:35.780Z,10.82
2019-05-22T20:50:09.149Z,12.65
2019-05-22T20:52:40.121Z,11.63
2019-05-22T20:55:12.349Z,11.45
2019-05-22T20:57:43.877Z,11.43
2019-05-22T21:00:17.308Z,11.33
2019-05-22T21:02:48.746Z,11.35
2019-05-22T21:05:23.206Z,11.50
2019-05-22T21:07:57.317Z,11.18
2019-05-22T21:10:30.372Z,13.90
2019-05-22T21:13:02.624Z,14.00
2019-05-22T21:15:34.188Z,13.32
2019-05-22T21:18:08.321Z,11.18
2019-05-22T21:23:11.275Z,12.80
2019-05-22T21:25:42.438Z,12.50
2019-05-22T21:28:13.564Z,12.70
2019-05-22T21:30:45.493Z,10.48
2019-05-22T21:33:17.473Z,10.20
2019-05-22T21:35:48.610Z,11.35
2019-05-22T21:38:19.719Z,10.60
2019-05-22T21:40:54.071Z,9.75
2019-05-22T21:43:24.848Z,10.90
2019-05-22T21:45:55.235Z,10.40
2019-05-22T21:48:30.531Z,10.98
2019-05-22T21:51:02.618Z,11.08
2019-05-22T21:53:35.054Z,11.68
2019-05-22T21:56:06.929Z,11.25
2019-05-22T21:58:39.152Z,11.03
2019-05-22T22:01:12.100Z,11.75
2019-05-22T22:03:54.875Z,11.38
2019-05-22T22:06:26.788Z,11.65
2019-05-22T22:08:57.010Z,12.98
2019-05-22T22:11:31.025Z,11.60
2019-05-22T22:14:03.520Z,12.85
2019-05-22T22:16:34.841Z,13.45
2019-05-22T22:19:07.365Z,13.85
2019-05-22T22:21:39.646Z,13.50
2019-05-22T22:24:10.986Z,13.48
2019-05-22T22:26:41.908Z,14.30
2019-05-22T22:29:15.342Z,13.83
2019-05-22T22:31:49.158Z,15.00
2019-05-22T22:34:27.934Z,14.85
2019-05-22T22:36:59.357Z,16.65
2019-05-22T22:39:32.133Z,16.15
2019-05-22T22:42:04.596Z,16.07
2019-05-22T22:44:36.171Z,17.27
2019-05-22T22:47:11.489Z,16.48
2019-05-22T22:49:42.961Z,17.32
2019-05-22T22:52:15.463Z,16.45
2019-05-22T22:54:47.946Z,17.50
2019-05-22T22:57:18.922Z,18.10
2019-05-22T22:59:49.163Z,17.25
2019-05-22T23:02:22.930Z,18.05
2019-05-22T23:04:55.445Z,18.35
2019-05-22T23:07:30.646Z,16.48
2019-05-22T23:10:01.996Z,17.52
2019-05-22T23:12:35.600Z,16.67
2019-05-22T23:15:07.917Z,15.93
2019-05-22T23:17:38.807Z,17.45
2019-05-22T23:20:08.058Z,16.85
2019-05-22T23:22:38.153Z,18.00
2019-05-22T23:25:10.466Z,19.52
2019-05-22T23:27:41.561Z,19.30
2019-05-22T23:30:14.034Z,19.82
2019-05-22T23:32:45.750Z,19.90
2019-05-22T23:35:20.305Z,19.92
2019-05-22T23:37:52.329Z,19.98
2019-05-22T23:40:28.150Z,20.52
2019-05-22T23:43:02.065Z,19.98
2019-05-22T23:45:34.068Z,20.50
2019-05-22T23:48:14.546Z,20.65
2019-05-22T23:50:47.352Z,20.57
2019-05-22T23:53:18.757Z,22.25
2019-05-22T23:55:50.314Z,19.92
2019-05-22T23:58:23.308Z,20.30
